Time;durP1;ratioP1;P1;durP2;ratioP2;P2;SDS_P1;SDS_P2;PMS_P1;PMS_P2;Temp;Humidity;BMP_temperature;BMP_pressure;BME280_temperature;BME280_humidity;BME280_pressure;Samples;Min_cycle;Max_cycle;Signal;HPM_P1;HPM_P2
2022/11/26 00:00:30;;;;;;;3.20;2.08;;;7.40;78.50;;;;;;4989967;28;20023;-63
2022/11/26 00:02:56;;;;;;;7.93;2.42;;;7.40;78.60;;;;;;4987508;28;20034;-62
2022/11/26 00:05:23;;;;;;;2.03;1.60;;;7.40;78.70;;;;;;4988335;28;20498;-63
2022/11/26 00:07:57;;;;;;;3.45;2.15;;;7.40;78.70;;;;;;4991167;28;20047;-63
2022/11/26 00:10:26;;;;;;;3.92;2.22;;;7.40;78.70;;;;;;4986446;28;20066;-63
2022/11/26 00:12:52;;;;;;;2.78;2.13;;;7.40;79.00;;;;;;4989657;28;20497;-62
2022/11/26 00:15:29;;;;;;;4.78;1.92;;;7.40;79.10;;;;;;4990070;28;20026;-61
2022/11/26 00:17:56;;;;;;;2.97;2.00;;;7.50;79.10;;;;;;4990042;28;20156;-63
2022/11/26 00:20:27;;;;;;;2.67;1.52;;;7.50;79.20;;;;;;4990209;28;20019;-64
2022/11/26 00:22:57;;;;;;;2.55;1.95;;;7.60;79.20;;;;;;4985563;28;20605;-62
2022/11/26 00:25:28;;;;;;;5.32;1.85;;;7.60;79.30;;;;;;4990872;28;20057;-62
2022/11/26 00:27:56;;;;;;;4.95;1.65;;;7.60;79.30;;;;;;4996698;28;20054;-62
2022/11/26 00:30:24;;;;;;;6.40;2.65;;;7.60;79.40;;;;;;4993152;28;20425;-62
2022/11/26 00:32:51;;;;;;;4.25;2.17;;;7.60;79.40;;;;;;4993055;28;20037;-63
2022/11/26 00:35:18;;;;;;;2.17;1.38;;;7.50;79.50;;;;;;4988290;28;20038;-62
2022/11/26 00:37:53;;;;;;;4.97;2.72;;;7.60;79.60;;;;;;5002583;28;20022;-62
2022/11/26 00:40:29;;;;;;;2.67;1.90;;;7.60;79.60;;;;;;4993027;28;20022;-62
2022/11/26 00:42:55;;;;;;;3.92;2.40;;;7.60;79.80;;;;;;4987133;28;20022;-62
2022/11/26 00:45:24;;;;;;;3.20;1.92;;;7.60;79.90;;;;;;4997172;28;20406;-62
2022/11/26 00:47:51;;;;;;;3.63;2.00;;;7.60;79.90;;;;;;4993751;28;20069;-62
2022/11/26 00:50:20;;;;;;;5.85;2.55;;;7.60;79.90;;;;;;4984041;28;20031;-62
2022/11/26 00:52:47;;;;;;;6.38;2.38;;;7.60;79.90;;;;;;4999785;28;20584;-62
2022/11/26 00:55:27;;;;;;;2.38;1.75;;;7.60;79.90;;;;;;4999974;28;20030;-63
2022/11/26 00:57:54;;;;;;;2.22;1.52;;;7.60;80.00;;;;;;4995258;28;20026;-62
2022/11/26 01:00:23;;;;;;;3.13;2.20;;;7.60;79.90;;;;;;4991152;28;20093;-63
2022/11/26 01:02:49;;;;;;;10.98;2.65;;;7.60;79.80;;;;;;4989225;28;20077;-62
2022/11/26 01:05:16;;;;;;;7.28;2.50;;;7.60;79.90;;;;;;5001625;28;20034;-62
2022/11/26 01:07:43;;;;;;;3.55;2.15;;;7.60;79.90;;;;;;4992892;28;20069;-62
2022/11/26 01:10:22;;;;;;;9.38;2.75;;;7.60;79.90;;;;;;4984621;28;20030;-62
2022/11/26 01:12:49;;;;;;;2.15;1.55;;;7.70;79.90;;;;;;4996289;28;20116;-62
2022/11/26 01:15:15;;;;;;;4.53;2.20;;;7.70;80.00;;;;;;4993626;28;20031;-63
2022/11/26 01:17:41;;;;;;;3.53;2.25;;;7.70;79.90;;;;;;4993332;28;20030;-63
2022/11/26 01:20:17;;;;;;;6.07;2.10;;;7.70;79.90;;;;;;5000291;28;20073;-62
2022/11/26 01:22:43;;;;;;;7.68;2.55;;;7.70;79.90;;;;;;4990742;28;20041;-63
2022/11/26 01:25:09;;;;;;;4.55;2.55;;;7.70;79.90;;;;;;4998610;28;20050;-62
2022/11/26 01:27:34;;;;;;;6.32;2.70;;;7.70;79.80;;;;;;4989149;28;20056;-62
2022/11/26 01:30:00;;;;;;;8.05;3.08;;;7.70;79.80;;;;;;4997991;28;20038;-62
2022/11/26 01:32:25;;;;;;;6.20;3.00;;;7.70;79.80;;;;;;4987612;28;20081;-62
2022/11/26 01:34:51;;;;;;;6.55;2.80;;;7.60;79.70;;;;;;5001011;28;20603;-62
2022/11/26 01:37:17;;;;;;;10.02;3.42;;;7.60;79.80;;;;;;5002978;28;20374;-62
2022/11/26 01:39:42;;;;;;;6.15;3.08;;;7.60;79.90;;;;;;4986121;28;20025;-62
2022/11/26 01:42:27;;;;;;;4.35;2.55;;;7.50;79.90;;;;;;4997139;28;20073;-62
2022/11/26 01:44:52;;;;;;;3.25;2.63;;;7.50;79.70;;;;;;4990680;28;20038;-62
2022/11/26 01:47:29;;;;;;;3.92;3.25;;;7.40;79.80;;;;;;4990495;28;20029;-62
2022/11/26 01:50:35;;;;;;;9.30;3.03;;;7.40;79.70;;;;;;5002381;28;20038;-62
2022/11/26 01:53:28;;;;;;;9.70;2.72;;;7.40;79.60;;;;;;4998372;28;20480;-62
2022/11/26 01:55:58;;;;;;;5.63;2.38;;;7.30;79.40;;;;;;5001237;28;20022;-62
2022/11/26 01:58:39;;;;;;;3.60;2.58;;;7.20;79.50;;;;;;5000330;28;20486;-61
2022/11/26 02:01:05;;;;;;;4.57;2.53;;;7.20;79.40;;;;;;4999897;28;20462;-62
2022/11/26 02:03:39;;;;;;;3.95;2.03;;;7.10;79.50;;;;;;5002644;28;20058;-63
2022/11/26 02:06:12;;;;;;;3.45;2.35;;;7.10;79.50;;;;;;5006340;28;20055;-63
2022/11/26 02:08:38;;;;;;;3.88;2.22;;;7.10;79.50;;;;;;4993157;28;20049;-61
2022/11/26 02:11:30;;;;;;;5.80;2.67;;;7.00;79.30;;;;;;4994956;28;20038;-62
2022/11/26 02:14:01;;;;;;;3.45;2.00;;;7.00;79.00;;;;;;5006453;28;20047;-62
2022/11/26 02:16:48;;;;;;;2.42;1.50;;;7.00;79.20;;;;;;4996149;28;20457;-62
2022/11/26 02:19:39;;;;;;;4.95;2.17;;;7.00;78.90;;;;;;5004651;28;20473;-63
2022/11/26 02:22:26;;;;;;;2.25;1.95;;;6.90;78.90;;;;;;4990955;28;20070;-63
2022/11/26 02:24:55;;;;;;;9.88;2.83;;;6.90;78.90;;;;;;4983680;28;20474;-63
2022/11/26 02:27:29;;;;;;;7.45;2.25;;;6.80;79.00;;;;;;4994012;28;20458;-62
2022/11/26 02:30:08;;;;;;;2.67;1.63;;;6.80;79.00;;;;;;4999073;28;20022;-63
2022/11/26 02:32:41;;;;;;;3.30;2.20;;;6.80;79.50;;;;;;4990670;28;20040;-63
2022/11/26 02:35:14;;;;;;;2.92;1.98;;;6.70;78.70;;;;;;4995292;28;20030;-62
2022/11/26 02:37:48;;;;;;;2.40;2.17;;;6.70;78.80;;;;;;4996702;28;20285;-63
2022/11/26 02:40:15;;;;;;;3.97;2.03;;;6.70;79.00;;;;;;5001040;28;20022;-63
2022/11/26 02:42:40;;;;;;;5.45;2.33;;;6.60;78.90;;;;;;4994159;28;20046;-63
2022/11/26 02:45:13;;;;;;;4.85;2.15;;;6.60;78.90;;;;;;4999204;28;20124;-62
2022/11/26 02:47:41;;;;;;;3.38;1.92;;;6.60;78.80;;;;;;4990162;28;20110;-63
2022/11/26 02:50:14;;;;;;;6.28;2.17;;;6.60;78.90;;;;;;4992945;28;20038;-63
2022/11/26 02:52:40;;;;;;;;;;;6.60;78.90;;;;;;4993150;28;20030;-63
2022/11/26 02:55:08;;;;;;;4.95;2.15;;;6.60;78.90;;;;;;5000043;28;19993;-60
2022/11/26 02:57:49;;;;;;;6.38;2.30;;;6.50;79.60;;;;;;4992399;28;20556;-63
2022/11/26 03:00:16;;;;;;;4.70;2.60;;;6.50;79.00;;;;;;4987430;28;20041;-62
2022/11/26 03:02:57;;;;;;;2.85;2.25;;;6.50;79.00;;;;;;4994866;28;20113;-62
2022/11/26 03:05:23;;;;;;;3.95;2.10;;;6.40;79.00;;;;;;4995872;28;20018;-62
2022/11/26 03:07:51;;;;;;;5.60;2.20;;;6.40;79.10;;;;;;4996955;28;20041;-62
2022/11/26 03:10:19;;;;;;;3.55;2.45;;;6.40;79.20;;;;;;4989870;28;20034;-62
2022/11/26 03:12:45;;;;;;;3.30;2.17;;;6.40;79.40;;;;;;5001080;28;20670;-62
2022/11/26 03:15:10;;;;;;;4.97;2.53;;;6.40;79.30;;;;;;5000734;28;20026;-62
2022/11/26 03:17:36;;;;;;;6.03;2.55;;;6.40;79.30;;;;;;5003021;28;20069;-62
2022/11/26 03:20:02;;;;;;;4.85;2.15;;;6.40;79.10;;;;;;5002839;28;20041;-62
2022/11/26 03:22:28;;;;;;;5.40;2.15;;;6.40;79.70;;;;;;4993173;28;20026;-62
2022/11/26 03:24:54;;;;;;;6.35;2.72;;;6.40;79.00;;;;;;4990962;28;20061;-62
2022/11/26 03:27:19;;;;;;;8.85;3.05;;;6.40;78.90;;;;;;4996598;28;20027;-62
2022/11/26 03:29:45;;;;;;;4.13;2.90;;;6.30;78.90;;;;;;4988473;28;20053;-62
2022/11/26 03:32:10;;;;;;;1.67;1.48;;;6.30;78.90;;;;;;4993623;28;20039;-63
2022/11/26 03:34:36;;;;;;;3.33;2.58;;;6.30;78.80;;;;;;4999834;28;20471;-63
2022/11/26 03:37:02;;;;;;;2.10;1.50;;;6.30;78.80;;;;;;4993129;28;20474;-63
2022/11/26 03:39:27;;;;;;;4.20;2.42;;;6.30;78.80;;;;;;4990808;28;20041;-63
2022/11/26 03:41:53;;;;;;;4.20;2.45;;;6.30;79.00;;;;;;5021158;28;20073;-63
2022/11/26 03:44:19;;;;;;;6.65;2.13;;;6.30;78.80;;;;;;4991533;28;20114;-63
2022/11/26 03:46:45;;;;;;;3.40;2.05;;;6.30;78.80;;;;;;4989237;28;20045;-63
2022/11/26 03:49:10;;;;;;;4.97;2.45;;;6.30;78.80;;;;;;4985550;28;20066;-62
2022/11/26 03:51:36;;;;;;;3.33;2.67;;;6.20;78.80;;;;;;5002285;28;20517;-62
2022/11/26 03:54:02;;;;;;;2.20;1.95;;;6.20;78.80;;;;;;4995126;28;20058;-62
2022/11/26 03:56:28;;;;;;;4.07;2.38;;;6.20;78.90;;;;;;4990419;28;20037;-62
2022/11/26 03:58:53;;;;;;;3.25;2.55;;;6.20;78.90;;;;;;4990354;28;20015;-62
2022/11/26 04:01:19;;;;;;;4.70;2.42;;;6.20;78.80;;;;;;4990747;28;20031;-62
2022/11/26 04:03:45;;;;;;;4.93;2.80;;;6.10;78.60;;;;;;4999400;28;20457;-62
2022/11/26 04:06:10;;;;;;;4.60;2.38;;;6.10;78.60;;;;;;4989968;28;20041;-62
2022/11/26 04:08:36;;;;;;;5.43;2.33;;;6.10;78.70;;;;;;4993398;28;20026;-62
2022/11/26 04:11:02;;;;;;;2.78;1.95;;;6.10;78.80;;;;;;5005227;28;20545;-61
2022/11/26 04:13:27;;;;;;;3.08;2.22;;;6.00;78.70;;;;;;5001793;28;20023;-61
2022/11/26 04:15:53;;;;;;;9.45;2.25;;;6.00;78.70;;;;;;5003694;28;20030;-62
2022/11/26 04:18:19;;;;;;;4.65;2.75;;;6.00;78.50;;;;;;4997034;28;20386;-63
2022/11/26 04:20:44;;;;;;;3.53;2.33;;;6.00;78.60;;;;;;4999984;28;20549;-62
2022/11/26 04:23:10;;;;;;;2.67;1.73;;;6.00;78.70;;;;;;4989066;28;20041;-63
2022/11/26 04:25:36;;;;;;;4.25;2.50;;;6.00;78.60;;;;;;4995185;28;20054;-62
2022/11/26 04:28:01;;;;;;;7.57;2.72;;;6.00;78.60;;;;;;5007421;28;20098;-62
2022/11/26 04:30:27;;;;;;;2.50;1.88;;;6.00;78.60;;;;;;5001091;28;20026;-62
2022/11/26 04:32:53;;;;;;;2.90;2.28;;;6.00;78.50;;;;;;4993474;28;20113;-62
2022/11/26 04:35:18;;;;;;;3.08;2.20;;;5.90;78.40;;;;;;4999795;28;20030;-62
2022/11/26 04:37:44;;;;;;;3.92;2.55;;;5.90;78.60;;;;;;4996039;28;20122;-62
2022/11/26 04:40:10;;;;;;;3.70;2.30;;;5.90;78.70;;;;;;4991670;28;20057;-62
2022/11/26 04:42:36;;;;;;;3.30;2.40;;;5.80;78.60;;;;;;4995740;28;20633;-62
2022/11/26 04:45:02;;;;;;;3.17;2.03;;;5.80;78.60;;;;;;4995484;28;20033;-62
2022/11/26 04:47:28;;;;;;;2.45;2.22;;;5.80;78.60;;;;;;5003536;28;20030;-62
2022/11/26 04:49:54;;;;;;;4.18;2.35;;;5.80;78.60;;;;;;5003491;28;20512;-62
2022/11/26 04:52:19;;;;;;;3.85;1.88;;;5.80;78.60;;;;;;4996120;28;20023;-62
2022/11/26 04:54:47;;;;;;;3.45;2.50;;;5.80;78.60;;;;;;4991758;28;20057;-62
2022/11/26 04:57:14;;;;;;;4.05;2.55;;;5.80;78.60;;;;;;4975789;28;20042;-63
2022/11/26 04:59:39;;;;;;;2.47;2.28;;;5.80;78.60;;;;;;4994178;28;20030;-62
2022/11/26 05:02:05;;;;;;;4.65;1.90;;;5.70;78.70;;;;;;5002821;28;20041;-62
2022/11/26 05:04:31;;;;;;;5.70;3.58;;;5.70;78.80;;;;;;4996436;28;20101;-62
2022/11/26 05:06:57;;;;;;;4.80;2.50;;;5.70;78.90;;;;;;4995889;28;20038;-63
2022/11/26 05:09:22;;;;;;;3.70;2.70;;;5.70;78.90;;;;;;5001434;28;20050;-63
2022/11/26 05:11:48;;;;;;;2.90;2.42;;;5.70;79.10;;;;;;5003244;28;20033;-62
2022/11/26 05:14:14;;;;;;;4.45;2.72;;;5.80;79.20;;;;;;4998686;28;20030;-62
2022/11/26 05:16:39;;;;;;;6.75;3.40;;;5.80;79.50;;;;;;5004391;28;20504;-63
2022/11/26 05:19:05;;;;;;;4.22;2.00;;;5.90;79.80;;;;;;5002229;28;20038;-63
2022/11/26 05:21:31;;;;;;;6.72;2.75;;;6.00;79.70;;;;;;5006080;28;20489;-62
2022/11/26 05:23:56;;;;;;;4.78;2.63;;;6.00;79.60;;;;;;4995559;28;20130;-63
2022/11/26 05:26:22;;;;;;;3.58;2.20;;;6.10;79.70;;;;;;4996558;28;20077;-62
2022/11/26 05:28:48;;;;;;;3.75;2.78;;;6.20;79.80;;;;;;4992757;28;20035;-62
2022/11/26 05:31:15;;;;;;;14.35;3.03;;;6.20;79.80;;;;;;4993094;28;20030;-63
2022/11/26 05:33:40;;;;;;;3.83;2.72;;;6.30;79.90;;;;;;4998892;28;20041;-63
2022/11/26 05:36:06;;;;;;;5.18;2.80;;;6.30;79.90;;;;;;4999691;28;20042;-63
2022/11/26 05:38:32;;;;;;;6.57;2.50;;;6.30;80.10;;;;;;5006097;28;20026;-62
2022/11/26 05:40:58;;;;;;;3.58;2.60;;;6.30;80.20;;;;;;5004596;28;20015;-62
2022/11/26 05:43:24;;;;;;;5.88;3.08;;;6.30;80.30;;;;;;5003351;28;20029;-62
2022/11/26 05:45:49;;;;;;;3.60;2.53;;;6.30;80.30;;;;;;5007656;28;20033;-62
2022/11/26 05:48:16;;;;;;;4.75;2.67;;;6.30;80.40;;;;;;5003694;28;20487;-63
2022/11/26 05:50:41;;;;;;;6.35;2.15;;;6.40;80.50;;;;;;5006994;28;20030;-63
2022/11/26 05:53:07;;;;;;;5.65;2.65;;;6.40;80.30;;;;;;4988752;28;20045;-62
2022/11/26 05:55:33;;;;;;;3.60;2.58;;;6.40;80.30;;;;;;5030141;28;20026;-62
2022/11/26 05:57:58;;;;;;;6.40;2.30;;;6.40;80.30;;;;;;4985143;28;20401;-62
2022/11/26 06:00:24;;;;;;;5.75;2.88;;;6.40;80.20;;;;;;4997191;28;20022;-62
2022/11/26 06:02:50;;;;;;;5.45;3.05;;;6.30;80.30;;;;;;5000205;28;20054;-62
2022/11/26 06:05:16;;;;;;;5.15;3.17;;;6.30;80.40;;;;;;4997981;28;20374;-62
2022/11/26 06:07:42;;;;;;;4.90;2.75;;;6.30;80.40;;;;;;4999666;28;20022;-62
2022/11/26 06:10:09;;;;;;;5.65;2.70;;;6.20;80.30;;;;;;5013229;28;20040;-62
2022/11/26 06:12:34;;;;;;;5.35;2.40;;;6.20;80.20;;;;;;4998969;28;20482;-62
2022/11/26 06:15:00;;;;;;;4.70;2.53;;;6.10;80.30;;;;;;4999295;28;20037;-62
2022/11/26 06:17:26;;;;;;;4.10;2.58;;;6.10;80.30;;;;;;4996239;28;20026;-62
2022/11/26 06:19:52;;;;;;;3.20;2.25;;;6.10;80.30;;;;;;5000765;28;20500;-62
2022/11/26 06:22:18;;;;;;;6.10;2.95;;;6.10;80.20;;;;;;5001116;28;21356;-62
2022/11/26 06:24:43;;;;;;;4.65;2.45;;;6.00;80.10;;;;;;4995560;28;20088;-62
2022/11/26 06:27:09;;;;;;;4.95;3.10;;;6.00;80.00;;;;;;5002869;28;20033;-62
2022/11/26 06:29:35;;;;;;;6.88;2.75;;;6.00;79.90;;;;;;4990736;28;20037;-62
2022/11/26 06:32:01;;;;;;;6.63;3.25;;;6.00;79.80;;;;;;4998265;28;20030;-62
2022/11/26 06:34:26;;;;;;;4.20;2.45;;;5.90;79.70;;;;;;4990089;28;20061;-61
2022/11/26 06:36:52;;;;;;;3.42;3.10;;;5.90;79.60;;;;;;4984600;28;20049;-62
2022/11/26 06:39:18;;;;;;;5.30;2.80;;;5.90;79.60;;;;;;4990025;28;20076;-62
2022/11/26 06:41:43;;;;;;;5.00;2.13;;;5.90;79.60;;;;;;4985908;28;20041;-63
2022/11/26 06:44:09;;;;;;;7.00;2.45;;;5.80;79.50;;;;;;4990455;28;20034;-63
2022/11/26 06:46:35;;;;;;;9.40;2.85;;;5.80;79.50;;;;;;4988212;28;20689;-61
2022/11/26 06:49:03;;;;;;;5.78;2.67;;;5.80;79.60;;;;;;4988603;28;20184;-61
2022/11/26 06:51:29;;;;;;;5.30;3.97;;;5.80;79.60;;;;;;4993847;28;20038;-61
2022/11/26 06:53:54;;;;;;;7.70;3.83;;;5.80;79.60;;;;;;4992627;28;20027;-62
2022/11/26 06:56:20;;;;;;;12.45;3.40;;;5.70;79.40;;;;;;4990685;28;20025;-61
2022/11/26 06:58:48;;;;;;;7.55;3.55;;;5.70;79.50;;;;;;4998184;28;20558;-61
2022/11/26 07:01:19;;;;;;;4.88;3.00;;;5.70;79.50;;;;;;4994382;28;20470;-61
2022/11/26 07:03:46;;;;;;;6.78;3.70;;;5.70;79.60;;;;;;5003150;28;20426;-61
2022/11/26 07:06:24;;;;;;;8.57;3.95;;;5.70;79.60;;;;;;4996357;28;20034;-61
2022/11/26 07:08:51;;;;;;;8.18;3.63;;;5.70;80.20;;;;;;5002916;28;20026;-61
2022/11/26 07:11:17;;;;;;;4.05;2.67;;;5.60;79.70;;;;;;4993937;28;20037;-61
2022/11/26 07:13:43;;;;;;;5.20;3.13;;;5.60;79.70;;;;;;5000636;28;20373;-61
2022/11/26 07:16:09;;;;;;;4.10;3.03;;;5.70;79.80;;;;;;4996287;28;20035;-61
2022/11/26 07:18:35;;;;;;;4.10;2.72;;;5.70;80.00;;;;;;4989701;28;20030;-62
2022/11/26 07:21:11;;;;;;;9.02;3.88;;;5.70;80.10;;;;;;4998861;28;20022;-62
2022/11/26 07:23:38;;;;;;;4.47;2.65;;;5.60;80.00;;;;;;5021331;28;20030;-62
2022/11/26 07:26:05;;;;;;;7.53;3.15;;;5.60;80.10;;;;;;4992553;28;20096;-62
2022/11/26 07:28:32;;;;;;;8.60;3.40;;;5.70;80.20;;;;;;5005887;28;20037;-62
2022/11/26 07:31:06;;;;;;;8.82;3.92;;;5.70;80.30;;;;;;5009894;28;20397;-62
2022/11/26 07:33:32;;;;;;;6.15;3.13;;;5.70;80.30;;;;;;5006309;28;20079;-61
2022/11/26 07:36:02;;;;;;;10.15;3.13;;;5.70;80.40;;;;;;5001438;28;20478;-62
2022/11/26 07:38:29;;;;;;;4.80;3.30;;;5.70;80.40;;;;;;4986170;28;20400;-61
2022/11/26 07:41:01;;;;;;;9.20;3.63;;;5.70;80.30;;;;;;4995250;28;20022;-61
2022/11/26 07:43:26;;;;;;;3.50;3.13;;;5.70;80.30;;;;;;4989676;28;20045;-61
2022/11/26 07:45:52;;;;;;;4.43;3.47;;;5.70;80.60;;;;;;5005729;28;20477;-61
2022/11/26 07:48:18;;;;;;;9.00;4.88;;;5.70;80.70;;;;;;4997017;28;20506;-62
2022/11/26 07:50:44;;;;;;;6.43;3.00;;;5.80;80.90;;;;;;4997403;28;20543;-61
2022/11/26 07:53:10;;;;;;;6.03;3.80;;;5.80;80.90;;;;;;4998299;28;20030;-62
2022/11/26 07:55:37;;;;;;;8.05;3.08;;;5.80;80.90;;;;;;5007390;28;20491;-62
2022/11/26 07:58:03;;;;;;;5.22;3.33;;;5.90;81.00;;;;;;5032373;28;20037;-60
2022/11/26 08:00:29;;;;;;;6.40;3.28;;;5.90;80.90;;;;;;5007298;28;20025;-61
2022/11/26 08:02:54;;;;;;;5.68;3.47;;;5.90;80.90;;;;;;5007423;28;20045;-61
2022/11/26 08:05:20;;;;;;;7.47;2.90;;;5.90;80.90;;;;;;4993508;28;20022;-62
2022/11/26 08:07:46;;;;;;;2.53;2.20;;;5.90;81.00;;;;;;4981793;28;20037;-60
2022/11/26 08:10:12;;;;;;;2.65;2.40;;;5.90;81.00;;;;;;5002625;28;20113;-60
2022/11/26 08:12:38;;;;;;;8.30;2.90;;;5.90;80.90;;;;;;4991872;28;20511;-61
2022/11/26 08:15:04;;;;;;;5.60;3.90;;;5.90;80.90;;;;;;4997423;28;20037;-61
2022/11/26 08:17:30;;;;;;;3.83;2.75;;;5.90;81.00;;;;;;5004988;28;20034;-60
2022/11/26 08:19:56;;;;;;;3.20;2.90;;;5.90;81.00;;;;;;4998800;28;20110;-61
2022/11/26 08:22:21;;;;;;;3.38;3.05;;;5.90;81.00;;;;;;4994397;28;20031;-61
2022/11/26 08:24:48;;;;;;;5.57;3.10;;;6.00;81.10;;;;;;4999777;28;20050;-60
2022/11/26 08:27:14;;;;;;;3.17;2.70;;;6.10;81.10;;;;;;5006809;28;20033;-60
2022/11/26 08:29:40;;;;;;;6.03;3.75;;;6.10;81.00;;;;;;4997224;28;20026;-60
2022/11/26 08:32:05;;;;;;;3.20;2.45;;;6.10;80.90;;;;;;5003758;28;20084;-61
2022/11/26 08:34:32;;;;;;;4.18;2.72;;;6.10;80.90;;;;;;5010124;28;20034;-61
2022/11/26 08:36:58;;;;;;;6.30;3.67;;;6.10;80.90;;;;;;5005670;28;20065;-60
2022/11/26 08:39:24;;;;;;;4.65;3.35;;;6.20;80.90;;;;;;5001400;28;20493;-61
2022/11/26 08:41:49;;;;;;;4.43;3.38;;;6.20;80.80;;;;;;4995004;28;20410;-60
2022/11/26 08:44:15;;;;;;;3.75;2.95;;;6.20;80.90;;;;;;5002758;28;20034;-60
2022/11/26 08:46:41;;;;;;;3.75;2.60;;;6.20;80.90;;;;;;4997516;28;20145;-61
2022/11/26 08:49:11;;;;;;;6.00;3.10;;;6.30;80.90;;;;;;4999259;28;20493;-61
2022/11/26 08:51:36;;;;;;;2.97;2.58;;;6.40;80.90;;;;;;4994848;28;20533;-61
2022/11/26 08:54:03;;;;;;;4.57;3.33;;;6.40;80.90;;;;;;4988668;28;20130;-62
2022/11/26 08:56:29;;;;;;;5.47;3.50;;;6.60;80.90;;;;;;4992652;28;20112;-62
2022/11/26 08:58:55;;;;;;;4.10;3.28;;;6.70;80.80;;;;;;4994533;28;20351;-61
2022/11/26 09:01:23;;;;;;;4.93;3.33;;;6.80;80.90;;;;;;4991698;28;20041;-62
2022/11/26 09:03:51;;;;;;;4.97;3.40;;;6.90;80.80;;;;;;4996402;28;20026;-62
2022/11/26 09:06:17;;;;;;;3.58;3.00;;;6.90;80.80;;;;;;5002803;28;20030;-62
2022/11/26 09:09:11;;;;;;;4.80;3.45;;;7.00;80.80;;;;;;5001609;28;20438;-62
2022/11/26 09:11:29;;;;;;;4.82;3.65;;;7.10;80.80;;;;;;4995137;28;20041;-62
2022/11/26 09:13:57;;;;;;;7.00;3.97;;;7.20;80.90;;;;;;4993412;28;20042;-61
2022/11/26 09:16:23;;;;;;;6.03;4.32;;;7.20;80.90;;;;;;4992379;28;20034;-61
2022/11/26 09:18:50;;;;;;;6.53;4.13;;;7.30;80.90;;;;;;4997897;28;20028;-62
2022/11/26 09:21:16;;;;;;;5.75;3.33;;;7.30;80.80;;;;;;4998024;28;20370;-61
2022/11/26 09:23:41;;;;;;;7.15;3.72;;;7.40;80.80;;;;;;4994500;28;20113;-61
2022/11/26 09:26:07;;;;;;;3.55;2.92;;;7.40;80.90;;;;;;4990318;28;20093;-61
2022/11/26 09:28:33;;;;;;;4.47;3.55;;;7.40;80.90;;;;;;4995010;28;20437;-61
2022/11/26 09:31:00;;;;;;;8.15;3.33;;;7.50;81.10;;;;;;5003402;28;20058;-61
2022/11/26 09:33:27;;;;;;;4.32;2.83;;;7.50;81.10;;;;;;4998036;28;20034;-62
2022/11/26 09:35:53;;;;;;;5.72;3.20;;;7.50;81.10;;;;;;5003899;28;20036;-61
2022/11/26 09:38:19;;;;;;;3.97;2.72;;;7.50;81.20;;;;;;4998319;28;20125;-62
2022/11/26 09:41:09;;;;;;;6.55;3.13;;;7.60;81.30;;;;;;4978020;28;20592;-61
2022/11/26 09:43:41;;;;;;;6.22;2.95;;;7.60;81.20;;;;;;4986306;28;20498;-62
2022/11/26 09:46:09;;;;;;;7.88;5.13;;;7.60;81.30;;;;;;4990952;28;20100;-62
2022/11/26 09:48:37;;;;;;;3.53;2.58;;;7.60;81.30;;;;;;4991295;28;20034;-61
2022/11/26 09:51:10;;;;;;;4.15;2.67;;;7.70;81.40;;;;;;5006881;28;20038;-61
2022/11/26 09:53:41;;;;;;;7.40;3.20;;;7.70;81.40;;;;;;4991605;28;20137;-62
2022/11/26 09:56:15;;;;;;;6.68;4.13;;;7.80;82.10;;;;;;4989102;28;20038;-61
2022/11/26 09:58:51;;;;;;;3.80;3.22;;;7.90;81.50;;;;;;4987246;28;20113;-62
2022/11/26 10:01:20;;;;;;;7.32;3.08;;;7.90;81.50;;;;;;4984048;28;20030;-62
2022/11/26 10:03:46;;;;;;;5.70;3.25;;;7.90;81.50;;;;;;4988000;28;20045;-62
2022/11/26 10:06:55;;;;;;;7.30;3.53;;;8.00;81.50;;;;;;4993419;28;20038;-62
2022/11/26 10:09:26;;;;;;;4.50;2.65;;;8.10;81.60;;;;;;4988494;28;20039;-62
2022/11/26 10:12:19;;;;;;;4.33;3.13;;;8.20;81.60;;;;;;4990809;28;20070;-62
2022/11/26 10:15:16;;;;;;;5.03;3.30;;;8.20;81.40;;;;;;4990494;28;20046;-62
2022/11/26 10:17:49;;;;;;;3.08;2.25;;;8.30;81.30;;;;;;4991519;28;20084;-62
2022/11/26 10:20:53;;;;;;;10.35;3.50;;;8.30;81.40;;;;;;4995058;28;20053;-62
2022/11/26 10:23:32;;;;;;;8.10;3.83;;;8.40;81.30;;;;;;4993816;28;20041;-62
2022/11/26 10:26:23;;;;;;;3.67;2.65;;;8.40;81.30;;;;;;4991818;28;20123;-63
2022/11/26 10:28:55;;;;;;;4.15;3.17;;;8.50;81.40;;;;;;4991848;28;20025;-63
2022/11/26 10:31:24;;;;;;;5.32;2.85;;;8.50;81.40;;;;;;4991755;28;20422;-62
2022/11/26 10:33:56;;;;;;;4.10;3.58;;;8.60;81.40;;;;;;4995156;28;20022;-63
2022/11/26 10:36:32;;;;;;;5.72;3.28;;;8.60;81.40;;;;;;4993475;28;20076;-62
2022/11/26 10:38:58;;;;;;;4.13;2.55;;;8.70;81.40;;;;;;4992410;28;20109;-63
2022/11/26 10:41:27;;;;;;;4.30;2.90;;;8.80;81.40;;;;;;4992452;28;20110;-62
2022/11/26 10:43:53;;;;;;;3.72;2.78;;;8.80;81.30;;;;;;4992358;28;20030;-63
2022/11/26 10:46:35;;;;;;;7.60;2.88;;;8.90;81.40;;;;;;4992462;28;20482;-62
2022/11/26 10:49:24;;;;;;;3.30;2.33;;;8.90;81.20;;;;;;4991100;28;20093;-63
2022/11/26 10:51:53;;;;;;;9.82;3.25;;;8.90;81.20;;;;;;4991016;28;20030;-63
2022/11/26 10:54:30;;;;;;;10.00;3.35;;;8.90;81.30;;;;;;4991404;28;20062;-62
2022/11/26 10:57:11;;;;;;;4.68;3.03;;;9.00;81.40;;;;;;4989138;28;20026;-62
2022/11/26 10:59:50;;;;;;;3.50;3.00;;;9.10;81.30;;;;;;4991515;28;20468;-62
2022/11/26 11:02:33;;;;;;;5.85;3.05;;;9.10;81.30;;;;;;4991601;28;20393;-62
2022/11/26 11:05:03;;;;;;;4.60;2.88;;;9.20;81.30;;;;;;4986259;28;20029;-62
2022/11/26 11:07:37;;;;;;;5.90;3.30;;;9.30;81.30;;;;;;4990298;28;20478;-62
2022/11/26 11:10:08;;;;;;;5.35;3.00;;;9.40;81.20;;;;;;4989404;28;20486;-62
2022/11/26 11:12:36;;;;;;;10.47;3.47;;;9.60;81.00;;;;;;4995800;28;20033;-62
2022/11/26 11:15:20;;;;;;;5.45;3.38;;;9.70;80.90;;;;;;4992442;28;20526;-63
2022/11/26 11:17:54;;;;;;;5.70;3.30;;;9.90;80.70;;;;;;4992912;28;20034;-62
2022/11/26 11:20:35;;;;;;;7.28;3.28;;;10.00;80.50;;;;;;4992256;28;20488;-63
2022/11/26 11:23:02;;;;;;;11.00;3.90;;;10.20;80.50;;;;;;4988505;28;20397;-63
2022/11/26 11:25:34;;;;;;;10.02;4.15;;;10.30;80.10;;;;;;4988025;28;20050;-62
2022/11/26 11:28:23;;;;;;;9.80;3.73;;;10.70;79.80;;;;;;4994027;28;20038;-62
2022/11/26 11:31:22;;;;;;;7.95;3.65;;;11.10;79.20;;;;;;4991586;28;20117;-62
2022/11/26 11:33:49;;;;;;;5.93;3.08;;;11.50;78.30;;;;;;4985012;28;20044;-61
2022/11/26 11:36:26;;;;;;;6.65;3.78;;;11.70;78.10;;;;;;4992416;28;20030;-61
2022/11/26 11:38:56;;;;;;;11.60;3.85;;;11.70;77.20;;;;;;4985908;28;20031;-62
2022/11/26 11:41:31;;;;;;;5.10;3.22;;;11.70;77.60;;;;;;4990670;28;20022;-62
2022/11/26 11:44:21;;;;;;;6.50;3.45;;;12.00;77.90;;;;;;4989464;28;20527;-62
2022/11/26 11:47:11;;;;;;;10.00;3.42;;;12.40;77.00;;;;;;4988040;28;20076;-65
2022/11/26 11:50:10;;;;;;;4.88;2.65;;;12.50;76.10;;;;;;4986453;28;20417;-61
2022/11/26 11:52:45;;;;;;;8.05;3.65;;;13.00;76.20;;;;;;5018411;28;20137;-61
2022/11/26 11:55:44;;;;;;;22.67;3.60;;;13.60;74.70;;;;;;4989203;28;20027;-61
2022/11/26 11:58:18;;;;;;;15.23;3.58;;;13.80;73.90;;;;;;4986710;28;20039;-61
2022/11/26 12:01:12;;;;;;;8.55;3.70;;;13.70;73.70;;;;;;4988959;28;20050;-60
2022/11/26 12:04:15;;;;;;;3.80;2.10;;;13.40;74.50;;;;;;4994315;28;20037;-61
2022/11/26 12:07:08;;;;;;;10.63;3.30;;;13.20;75.40;;;;;;4991487;28;20409;-62
2022/11/26 12:09:57;;;;;;;7.50;3.15;;;13.20;75.40;;;;;;4990144;28;20172;-63
2022/11/26 12:12:34;;;;;;;4.60;3.10;;;13.40;75.50;;;;;;4988361;28;20038;-62
2022/11/26 12:15:11;;;;;;;2.55;2.30;;;14.30;74.50;;;;;;4990187;28;20137;-63
2022/11/26 12:18:11;;;;;;;9.40;2.92;;;14.90;72.60;;;;;;4991013;28;20035;-63
2022/11/26 12:20:57;;;;;;;3.63;2.45;;;15.40;71.50;;;;;;4986058;28;20461;-63
2022/11/26 12:23:49;;;;;;;18.02;3.72;;;15.70;70.30;;;;;;4990867;28;20034;-63
2022/11/26 12:26:20;;;;;;;3.70;1.98;;;16.10;70.10;;;;;;4989165;28;20042;-62
2022/11/26 12:29:01;;;;;;;4.88;2.50;;;16.80;68.80;;;;;;4988487;28;20034;-62
2022/11/26 12:31:35;;;;;;;3.53;2.20;;;17.30;68.10;;;;;;4988622;28;20448;-63
2022/11/26 12:34:29;;;;;;;6.03;2.30;;;17.40;67.00;;;;;;4993313;28;20061;-63
2022/11/26 12:37:05;;;;;;;8.00;2.13;;;17.40;67.00;;;;;;4980861;28;20041;-65
2022/11/26 12:39:59;;;;;;;6.90;2.78;;;17.10;67.30;;;;;;4990764;28;20109;-62
2022/11/26 12:42:29;;;;;;;5.03;2.45;;;16.80;67.80;;;;;;4994112;28;20042;-62
2022/11/26 12:45:03;;;;;;;3.22;2.20;;;16.50;68.20;;;;;;4999260;28;20030;-61
2022/11/26 12:47:37;;;;;;;8.00;2.30;;;16.40;68.70;;;;;;4992614;28;20018;-62
2022/11/26 12:50:19;;;;;;;4.65;2.05;;;16.30;68.70;;;;;;4994067;28;20039;-62
2022/11/26 12:53:17;;;;;;;8.18;3.50;;;16.20;69.10;;;;;;4994395;28;20084;-62
2022/11/26 12:56:09;;;;;;;2.35;1.95;;;16.30;69.10;;;;;;4991009;28;20077;-63
2022/11/26 12:59:07;;;;;;;3.05;1.70;;;16.50;68.80;;;;;;4990578;28;20070;-63
2022/11/26 13:01:32;;;;;;;9.05;2.20;;;16.60;68.30;;;;;;4990757;28;20049;-62
2022/11/26 13:04:00;;;;;;;3.60;1.80;;;16.50;68.20;;;;;;4997343;28;20022;-62
2022/11/26 13:06:52;;;;;;;4.15;2.03;;;16.40;68.40;;;;;;4992185;28;20038;-62
2022/11/26 13:09:33;;;;;;;3.30;1.58;;;16.30;68.60;;;;;;4998556;28;20571;-63
2022/11/26 13:12:45;;;;;;;4.22;2.40;;;16.00;68.70;;;;;;4991946;28;20046;-62
2022/11/26 13:15:45;;;;;;;2.63;2.03;;;15.20;69.40;;;;;;4970767;28;20070;-62